Scappoose, OR

9:33 AM PDT on August 28, 2014 (GMT -0700)
Foothills North of North Plains | Change Station
CLOSE
Current Station
Personal Weather Station
Location: North Plains, OR
Elevation: 875 ft
Nearby Weather Stations

Elev 875 ft 45.65 °N, 122.96 °W | Updated 2 minutes ago

Partly Cloudy
Partly Cloudy
62.6 °F
Feels Like 62.6 °F
N
-
Wind Variable Wind from North

Today
High -- | Low -- °F
--% Chance of Precip.
Yesterday
High -- | Low -- °F
Precip. -- in
6:28 AM 7:57 PM
Waxing Crescent, 9% visible
Pressure 30.12 in
Visibility 10.0 miles
Clouds Few 1700 ft
Dew Point 56 °F
Humidity 80%
Rainfall -999.00 in
Snow Depth 0 in
UV 2 out of 12
Pollen 3.80 out of 12
Air Quality Not available.
Flu Activity Not available.
METAR KSPB 281553Z AUTO 36005KT 10SM FEW017 18/13 A3012 RMK AO2 SLP198 T01830133

More Conditions Fewer Conditions

Pressure 30.12 in
Visibility 10.0 miles
Clouds Few 1700 ft
Dew Point 56 °F
Humidity 80%
Rainfall -999.00 in
Snow Depth 0 in
UV 2 out of 12
Pollen 3.80 out of 12
Air Quality Not available.
Flu Activity Not available.
METAR KSPB 281553Z AUTO 36005KT 10SM FEW017 18/13 A3012 RMK AO2 SLP198 T01830133

More Conditions Fewer Conditions

10-Day Weather Forecast

Almanac

Astronomy

Aug. 28, 2014 Rise Set
Actual Time 6:28 AM PDT 7:57 PM PDT
Civil Twilight 5:57 AM PDT 8:27 PM PDT
Nautical Twilight 5:19 AM PDT 9:05 PM PDT
Astronomical Twilight 4:39 AM PDT 9:45 PM PDT
Moon 9:37 AM PDT 9:11 PM PDT
Length of Visible Light 14h 30m
Length of Day
13h 28m
Tomorrow will be 3m 3s shorter.
Waxing Crescent, 9% of the Moon is Illuminated
Today
Waxing Crescent
Sep 2
First Quarter
Sep 8
Full
Sep 15
Last Quarter
Sep 24
New

Today's Extremes

State Highs State Lows

Community

WunderPhotos

Upload Photos

1,748,010 photos uploaded!

Nearby

Snow Depth

Station Depth Elevation
Seine Creek 0 in 2000 ft
North Fork 1 in 3120 ft
Blazed Alder 0 in 3650 ft
Greenpoint 1 in 3200 ft
Red Hill 0 in 4400 ft

Earthquake Activity

City Distance Mag. Time & Date
No recent earthquake activity has been reported nearby.
Minimum magnitude displayed is 2.5.

Coastal Water Temperatures

Place Temperature
No Stations Reporting

Nearby Weather Stations